PWSweather.com
Personal Weather Stations
Station Observations
CARNOUSTIE
Pambride, CarnoustieGB DD7 6DY

PambrideCarnoustieGB DD7 6DY

Lat: 56.50889, Lon: -2.7051

Elevation: 105

Station Type: Oregon Scientific WMR200

Latest ConditionsUpdated 10:10:00 PM GMT Saturday, Feb 23, 2019
Currently Today's Max Today's Min Today's Average
Temperature 46.0°F7.8°C 57.0°F13.9°C 37.4°F3.0°C 47.1°F8.4°C
Dew Point 33.7°F0.9°C 45.6°F7.6°C 26.7°F-2.9°C 34.6°F1.4°C
Winds 2.3 mph WSW3.7 kmh WSW 13.8 mph -22.2 kmh - - 3.9 mph 6.3 kmh
Wind Gusts 3.5 mph5.6 kmh 20.7 mph33.3 kmh - -
Humidity 62% 78% 47% 62%
Pressure 30.30 in1026.1 mb 30.30 in1026.1 mb 30.12 in1020.0 mb -
Hour Temp Dew Point Humidity Winds Wind Gusts Pressure Precip Precip Rate Daily Precip Total
10:10 PM 46.0°F7.8°C 33.7°F0.9°C 62% 2.3 mph WSW3.7 kmh WSW 3.5 mph5.6 kmh 30.30 in1026.1 mb - 0.00 in0.0 mm 0.00 in0.0 mm
10:00 PM 46.4°F8.0°C 34.0°F1.1°C 62% 3.5 mph SW5.6 kmh SW 3.5 mph5.6 kmh 30.30 in1026.1 mb - 0.00 in0.0 mm 0.00 in0.0 mm
09:55 PM 46.4°F8.0°C 33.7°F0.9°C 61% 3.5 mph SW5.6 kmh SW 4.6 mph7.4 kmh 30.30 in1026.1 mb - 0.00 in0.0 mm 0.00 in0.0 mm
09:50 PM 46.6°F8.1°C 33.8°F1.0°C 61% 3.5 mph SW5.6 kmh SW 4.6 mph7.4 kmh 30.30 in1026.1 mb - 0.00 in0.0 mm 0.00 in0.0 mm
09:45 PM 46.8°F8.2°C 34.4°F1.3°C 62% 3.5 mph WSW5.6 kmh WSW 3.5 mph5.6 kmh 30.30 in1026.1 mb - 0.00 in0.0 mm 0.00 in0.0 mm
09:40 PM 47.0°F8.3°C 34.7°F1.5°C 62% 2.3 mph WNW3.7 kmh WNW 3.5 mph5.6 kmh 30.30 in1026.1 mb - 0.00 in0.0 mm 0.00 in0.0 mm
09:35 PM 47.1°F8.4°C 34.8°F1.6°C 62% 2.3 mph W3.7 kmh W 3.5 mph5.6 kmh 30.27 in1025.1 mb - 0.00 in0.0 mm 0.00 in0.0 mm
09:30 PM 46.9°F8.3°C 35.4°F1.9°C 64% 4.6 mph WSW7.4 kmh WSW 6.9 mph11.1 kmh 30.27 in1025.1 mb - 0.00 in0.0 mm 0.00 in0.0 mm
09:25 PM 46.8°F8.2°C 34.8°F1.6°C 63% 4.6 mph SSW7.4 kmh SSW 5.8 mph9.3 kmh 30.27 in1025.1 mb - 0.00 in0.0 mm 0.00 in0.0 mm
09:20 PM 46.8°F8.2°C 34.4°F1.3°C 62% 4.6 mph WSW7.4 kmh WSW 5.8 mph9.3 kmh 30.27 in1025.1 mb - 0.00 in0.0 mm 0.00 in0.0 mm
09:15 PM 46.6°F8.1°C 34.3°F1.3°C 62% 4.6 mph W7.4 kmh W 5.8 mph9.3 kmh 30.27 in1025.1 mb - 0.00 in0.0 mm 0.00 in0.0 mm
09:10 PM 46.6°F8.1°C 33.4°F0.8°C 60% 4.6 mph WSW7.4 kmh WSW 5.8 mph9.3 kmh 30.27 in1025.1 mb - 0.00 in0.0 mm 0.00 in0.0 mm
09:00 PM 46.8°F8.2°C 36.0°F2.2°C 66% 3.5 mph SSW5.6 kmh SSW 3.5 mph5.6 kmh 30.27 in1025.1 mb - 0.00 in0.0 mm 0.00 in0.0 mm
08:55 PM 46.9°F8.3°C 34.6°F1.4°C 62% 3.5 mph SW5.6 kmh SW 4.6 mph7.4 kmh 30.27 in1025.1 mb - 0.00 in0.0 mm 0.00 in0.0 mm
08:50 PM 47.1°F8.4°C 36.0°F2.2°C 65% 3.5 mph SW5.6 kmh SW 4.6 mph7.4 kmh 30.24 in1024.0 mb - 0.00 in0.0 mm 0.00 in0.0 mm
08:45 PM 47.2°F8.4°C 34.9°F1.6°C 62% 4.6 mph SW7.4 kmh SW 8.1 mph13.0 kmh 30.24 in1024.0 mb - 0.00 in0.0 mm 0.00 in0.0 mm
08:40 PM 47.3°F8.5°C 33.7°F0.9°C 59% 4.6 mph SW7.4 kmh SW 5.8 mph9.3 kmh 30.24 in1024.0 mb - 0.00 in0.0 mm 0.00 in0.0 mm
08:35 PM 47.5°F8.6°C 35.9°F2.2°C 64% 4.6 mph WSW7.4 kmh WSW 5.8 mph9.3 kmh 30.27 in1025.1 mb - 0.00 in0.0 mm 0.00 in0.0 mm
08:30 PM 47.7°F8.7°C 34.4°F1.3°C 60% 3.5 mph SSW5.6 kmh SSW 4.6 mph7.4 kmh 30.27 in1025.1 mb - 0.00 in0.0 mm 0.00 in0.0 mm
08:25 PM 48.0°F8.9°C 34.8°F1.6°C 60% 3.5 mph SW5.6 kmh SW 4.6 mph7.4 kmh 30.27 in1025.1 mb - 0.00 in0.0 mm 0.00 in0.0 mm
08:20 PM 48.4°F9.1°C 34.7°F1.5°C 59% 4.6 mph WSW7.4 kmh WSW 5.8 mph9.3 kmh 30.24 in1024.0 mb - 0.00 in0.0 mm 0.00 in0.0 mm
08:15 PM 48.7°F9.3°C 36.3°F2.4°C 62% 4.6 mph SW7.4 kmh SW 5.8 mph9.3 kmh 30.24 in1024.0 mb - 0.00 in0.0 mm 0.00 in0.0 mm
08:10 PM 48.9°F9.4°C 36.1°F2.3°C 61% 5.8 mph SW9.3 kmh SW 6.9 mph11.1 kmh 30.24 in1024.0 mb - 0.00 in0.0 mm 0.00 in0.0 mm
08:00 PM 49.3°F9.6°C 39.2°F4.0°C 68% 5.8 mph WSW9.3 kmh WSW 8.1 mph13.0 kmh 30.27 in1025.1 mb - 0.00 in0.0 mm 0.00 in0.0 mm
07:55 PM 49.6°F9.8°C 40.3°F4.6°C 70% 3.5 mph WSW5.6 kmh WSW 5.8 mph9.3 kmh 30.27 in1025.1 mb - 0.00 in0.0 mm 0.00 in0.0 mm
07:50 PM 49.8°F9.9°C 37.7°F3.2°C 63% 4.6 mph W7.4 kmh W 6.9 mph11.1 kmh 30.24 in1024.0 mb - 0.00 in0.0 mm 0.00 in0.0 mm
07:45 PM 49.8°F9.9°C 40.8°F4.9°C 71% 4.6 mph W7.4 kmh W 5.8 mph9.3 kmh 30.24 in1024.0 mb - 0.00 in0.0 mm 0.00 in0.0 mm
07:40 PM 50.0°F10.0°C 39.8°F4.3°C 68% 2.3 mph WSW3.7 kmh WSW 2.3 mph3.7 kmh 30.24 in1024.0 mb - 0.00 in0.0 mm 0.00 in0.0 mm
07:35 PM 50.2°F10.1°C 40.4°F4.7°C 69% 2.3 mph WSW3.7 kmh WSW 2.3 mph3.7 kmh 30.24 in1024.0 mb - 0.00 in0.0 mm 0.00 in0.0 mm
07:30 PM 50.0°F10.0°C 41.0°F5.0°C 71% 5.8 mph WSW9.3 kmh WSW 9.2 mph14.8 kmh 30.24 in1024.0 mb - 0.00 in0.0 mm 0.00 in0.0 mm
07:25 PM 50.0°F10.0°C 37.5°F3.1°C 62% 4.6 mph WSW7.4 kmh WSW 4.6 mph7.4 kmh 30.24 in1024.0 mb - 0.00 in0.0 mm 0.00 in0.0 mm
07:20 PM 50.0°F10.0°C 39.5°F4.2°C 67% 3.5 mph W5.6 kmh W 3.5 mph5.6 kmh 30.24 in1024.0 mb - 0.00 in0.0 mm 0.00 in0.0 mm
07:15 PM 50.0°F10.0°C 37.9°F3.3°C 63% 4.6 mph W7.4 kmh W 5.8 mph9.3 kmh 30.24 in1024.0 mb - 0.00 in0.0 mm 0.00 in0.0 mm
07:10 PM 50.2°F10.1°C 38.9°F3.8°C 65% 4.6 mph W7.4 kmh W 5.8 mph9.3 kmh 30.24 in1024.0 mb - 0.00 in0.0 mm 0.00 in0.0 mm
07:00 PM 50.2°F10.1°C 35.5°F1.9°C 57% 3.5 mph WSW5.6 kmh WSW 8.1 mph13.0 kmh 30.21 in1023.0 mb - 0.00 in0.0 mm 0.00 in0.0 mm
06:55 PM 50.2°F10.1°C 35.5°F1.9°C 57% 4.6 mph WSW7.4 kmh WSW 5.8 mph9.3 kmh 30.21 in1023.0 mb - 0.00 in0.0 mm 0.00 in0.0 mm
06:50 PM 50.4°F10.2°C 35.7°F2.1°C 57% 4.6 mph SW7.4 kmh SW 8.1 mph13.0 kmh 30.21 in1023.0 mb - 0.00 in0.0 mm 0.00 in0.0 mm
06:45 PM 50.5°F10.3°C 35.9°F2.2°C 57% 3.5 mph WSW5.6 kmh WSW 4.6 mph7.4 kmh 30.21 in1023.0 mb - 0.00 in0.0 mm 0.00 in0.0 mm
06:40 PM 50.7°F10.4°C 36.0°F2.2°C 57% 3.5 mph SW5.6 kmh SW 5.8 mph9.3 kmh 30.21 in1023.0 mb - 0.00 in0.0 mm 0.00 in0.0 mm
06:35 PM 50.7°F10.4°C 36.0°F2.2°C 57% 4.6 mph SW7.4 kmh SW 6.9 mph11.1 kmh 30.21 in1023.0 mb - 0.00 in0.0 mm 0.00 in0.0 mm
06:30 PM 50.7°F10.4°C 35.6°F2.0°C 56% 3.5 mph SW5.6 kmh SW 5.8 mph9.3 kmh 30.21 in1023.0 mb - 0.00 in0.0 mm 0.00 in0.0 mm
06:25 PM 50.9°F10.5°C 35.7°F2.1°C 56% 4.6 mph SW7.4 kmh SW 4.6 mph7.4 kmh 30.21 in1023.0 mb - 0.00 in0.0 mm 0.00 in0.0 mm
06:20 PM 51.1°F10.6°C 35.9°F2.2°C 56% 4.6 mph WSW7.4 kmh WSW 5.8 mph9.3 kmh 30.21 in1023.0 mb - 0.00 in0.0 mm 0.00 in0.0 mm
06:15 PM 51.3°F10.7°C 36.1°F2.3°C 56% 3.5 mph WSW5.6 kmh WSW 5.8 mph9.3 kmh 30.21 in1023.0 mb - 0.00 in0.0 mm 0.00 in0.0 mm
06:10 PM 51.3°F10.7°C 36.1°F2.3°C 56% 5.8 mph W9.3 kmh W 6.9 mph11.1 kmh 30.21 in1023.0 mb - 0.00 in0.0 mm 0.00 in0.0 mm
06:00 PM 51.6°F10.9°C 36.4°F2.4°C 56% 6.9 mph SW11.1 kmh SW 8.1 mph13.0 kmh 30.21 in1023.0 mb - 0.00 in0.0 mm 0.00 in0.0 mm
05:55 PM 51.6°F10.9°C 36.4°F2.4°C 56% 5.8 mph SSW9.3 kmh SSW 8.1 mph13.0 kmh 30.21 in1023.0 mb - 0.00 in0.0 mm 0.00 in0.0 mm
05:50 PM 51.6°F10.9°C 36.0°F2.2°C 55% 6.9 mph SW11.1 kmh SW 9.2 mph14.8 kmh 30.18 in1022.0 mb - 0.00 in0.0 mm 0.00 in0.0 mm
05:45 PM 51.6°F10.9°C 36.0°F2.2°C 55% 3.5 mph WSW5.6 kmh WSW 4.6 mph7.4 kmh 30.18 in1022.0 mb - 0.00 in0.0 mm 0.00 in0.0 mm
05:40 PM 51.6°F10.9°C 36.0°F2.2°C 55% 4.6 mph WSW7.4 kmh WSW 5.8 mph9.3 kmh 30.18 in1022.0 mb - 0.00 in0.0 mm 0.00 in0.0 mm
05:35 PM 51.8°F11.0°C 35.2°F1.8°C 53% 6.9 mph WSW11.1 kmh WSW 10.4 mph16.7 kmh 30.21 in1023.0 mb - 0.00 in0.0 mm 0.00 in0.0 mm
05:30 PM 51.8°F11.0°C 34.7°F1.5°C 52% 5.8 mph SW9.3 kmh SW 8.1 mph13.0 kmh 30.21 in1023.0 mb - 0.00 in0.0 mm 0.00 in0.0 mm
05:25 PM 51.8°F11.0°C 34.7°F1.5°C 52% 6.9 mph WSW11.1 kmh WSW 11.5 mph18.5 kmh 30.21 in1023.0 mb - 0.00 in0.0 mm 0.00 in0.0 mm
05:20 PM 52.0°F11.1°C 34.4°F1.3°C 51% 6.9 mph W11.1 kmh W 10.4 mph16.7 kmh 30.18 in1022.0 mb - 0.00 in0.0 mm 0.00 in0.0 mm
05:15 PM 52.2°F11.2°C 34.6°F1.4°C 51% 5.8 mph W9.3 kmh W 5.8 mph9.3 kmh 30.18 in1022.0 mb - 0.00 in0.0 mm 0.00 in0.0 mm
05:10 PM 52.3°F11.3°C 34.2°F1.2°C 50% 6.9 mph W11.1 kmh W 9.2 mph14.8 kmh 30.18 in1022.0 mb - 0.00 in0.0 mm 0.00 in0.0 mm
05:00 PM 52.7°F11.5°C 33.5°F0.8°C 48% 4.6 mph WSW7.4 kmh WSW 6.9 mph11.1 kmh 30.18 in1022.0 mb - 0.00 in0.0 mm 0.00 in0.0 mm
04:55 PM 53.1°F11.7°C 33.9°F1.1°C 48% 8.1 mph WSW13.0 kmh WSW 9.2 mph14.8 kmh 30.18 in1022.0 mb - 0.00 in0.0 mm 0.00 in0.0 mm
04:50 PM 53.5°F11.9°C 33.8°F1.0°C 47% 5.8 mph SW9.3 kmh SW 9.2 mph14.8 kmh 30.18 in1022.0 mb - 0.00 in0.0 mm 0.00 in0.0 mm
04:45 PM 54.1°F12.3°C 36.4°F2.4°C 51% 6.9 mph WSW11.1 kmh WSW 9.2 mph14.8 kmh 30.18 in1022.0 mb - 0.00 in0.0 mm 0.00 in0.0 mm
04:40 PM 54.7°F12.6°C 37.9°F3.3°C 53% 8.1 mph WSW13.0 kmh WSW 13.8 mph22.2 kmh 30.18 in1022.0 mb - 0.00 in0.0 mm 0.00 in0.0 mm
04:35 PM 55.2°F12.9°C 39.3°F4.1°C 55% 6.9 mph SW11.1 kmh SW 12.7 mph20.4 kmh 30.18 in1022.0 mb - 0.00 in0.0 mm 0.00 in0.0 mm
04:30 PM 55.6°F13.1°C 41.9°F5.5°C 60% 8.1 mph SW13.0 kmh SW 9.2 mph14.8 kmh 30.18 in1022.0 mb - 0.00 in0.0 mm 0.00 in0.0 mm
04:25 PM 55.6°F13.1°C 38.2°F3.4°C 52% 12.7 mph WSW20.4 kmh WSW 17.3 mph27.8 kmh 30.18 in1022.0 mb - 0.00 in0.0 mm 0.00 in0.0 mm
04:20 PM 55.9°F13.3°C 38.6°F3.7°C 52% 10.4 mph W16.7 kmh W 15.0 mph24.1 kmh 30.15 in1021.0 mb - 0.00 in0.0 mm 0.00 in0.0 mm
04:15 PM 56.1°F13.4°C 44.1°F6.7°C 64% 13.8 mph W22.2 kmh W 20.7 mph33.3 kmh 30.15 in1021.0 mb - 0.00 in0.0 mm 0.00 in0.0 mm
04:10 PM 56.5°F13.6°C 38.6°F3.7°C 51% 11.5 mph WSW18.5 kmh WSW 16.1 mph25.9 kmh 30.15 in1021.0 mb - 0.00 in0.0 mm 0.00 in0.0 mm
04:00 PM 56.8°F13.8°C 45.2°F7.3°C 65% 9.2 mph SW14.8 kmh SW 15.0 mph24.1 kmh 30.15 in1021.0 mb - 0.00 in0.0 mm 0.00 in0.0 mm
03:55 PM 57.0°F13.9°C 45.0°F7.2°C 64% 9.2 mph SSW14.8 kmh SSW 12.7 mph20.4 kmh 30.15 in1021.0 mb - 0.00 in0.0 mm 0.00 in0.0 mm
03:50 PM 57.0°F13.9°C 45.0°F7.2°C 64% 10.4 mph WSW16.7 kmh WSW 16.1 mph25.9 kmh 30.15 in1021.0 mb - 0.00 in0.0 mm 0.00 in0.0 mm
03:45 PM 57.0°F13.9°C 43.7°F6.5°C 61% 12.7 mph SW20.4 kmh SW 17.3 mph27.8 kmh 30.15 in1021.0 mb - 0.00 in0.0 mm 0.00 in0.0 mm
03:40 PM 57.0°F13.9°C 39.6°F4.2°C 52% 8.1 mph WSW13.0 kmh WSW 16.1 mph25.9 kmh 30.15 in1021.0 mb - 0.00 in0.0 mm 0.00 in0.0 mm
03:35 PM 56.9°F13.8°C 41.3°F5.2°C 56% 12.7 mph SW20.4 kmh SW 15.0 mph24.1 kmh 30.15 in1021.0 mb - 0.00 in0.0 mm 0.00 in0.0 mm
03:30 PM 56.8°F13.8°C 43.1°F6.2°C 60% 8.1 mph WSW13.0 kmh WSW 16.1 mph25.9 kmh 30.15 in1021.0 mb - 0.00 in0.0 mm 0.00 in0.0 mm
03:25 PM 56.7°F13.7°C 42.0°F5.6°C 58% 10.4 mph SW16.7 kmh SW 13.8 mph22.2 kmh 30.15 in1021.0 mb - 0.00 in0.0 mm 0.00 in0.0 mm
03:20 PM 56.7°F13.7°C 38.7°F3.7°C 51% 9.2 mph WSW14.8 kmh WSW 12.7 mph20.4 kmh 30.15 in1021.0 mb - 0.00 in0.0 mm 0.00 in0.0 mm
03:15 PM 56.5°F13.6°C 38.1°F3.4°C 50% 10.4 mph SSW16.7 kmh SSW 12.7 mph20.4 kmh 30.15 in1021.0 mb - 0.00 in0.0 mm 0.00 in0.0 mm
03:10 PM 56.3°F13.5°C 44.7°F7.1°C 65% 9.2 mph SSW14.8 kmh SSW 12.7 mph20.4 kmh 30.15 in1021.0 mb - 0.00 in0.0 mm 0.00 in0.0 mm
03:00 PM 55.7°F13.2°C 38.3°F3.5°C 52% 8.1 mph SSW13.0 kmh SSW 10.4 mph16.7 kmh 30.15 in1021.0 mb - 0.00 in0.0 mm 0.00 in0.0 mm
02:55 PM 54.9°F12.7°C 40.8°F4.9°C 59% 8.1 mph SSW13.0 kmh SSW 12.7 mph20.4 kmh 30.15 in1021.0 mb - 0.00 in0.0 mm 0.00 in0.0 mm
02:50 PM 54.5°F12.5°C 41.7°F5.4°C 62% 5.8 mph S9.3 kmh S 9.2 mph14.8 kmh 30.15 in1021.0 mb - 0.00 in0.0 mm 0.00 in0.0 mm
02:45 PM 54.5°F12.5°C 40.9°F4.9°C 60% 4.6 mph S7.4 kmh S 5.8 mph9.3 kmh 30.15 in1021.0 mb - 0.00 in0.0 mm 0.00 in0.0 mm
02:40 PM 54.7°F12.6°C 41.9°F5.5°C 62% 5.8 mph S9.3 kmh S 6.9 mph11.1 kmh 30.15 in1021.0 mb - 0.00 in0.0 mm 0.00 in0.0 mm
02:35 PM 54.9°F12.7°C 41.7°F5.4°C 61% 6.9 mph S11.1 kmh S 6.9 mph11.1 kmh 30.15 in1021.0 mb - 0.00 in0.0 mm 0.00 in0.0 mm
02:30 PM 54.9°F12.7°C 45.6°F7.6°C 71% 4.6 mph S7.4 kmh S 5.8 mph9.3 kmh 30.15 in1021.0 mb - 0.00 in0.0 mm 0.00 in0.0 mm
02:25 PM 55.0°F12.8°C 39.1°F3.9°C 55% 5.8 mph S9.3 kmh S 6.9 mph11.1 kmh 30.15 in1021.0 mb - 0.00 in0.0 mm 0.00 in0.0 mm
02:20 PM 54.9°F12.7°C 38.5°F3.6°C 54% 6.9 mph S11.1 kmh S 9.2 mph14.8 kmh 30.15 in1021.0 mb - 0.00 in0.0 mm 0.00 in0.0 mm
02:15 PM 54.7°F12.6°C 41.1°F5.1°C 60% 6.9 mph S11.1 kmh S 13.8 mph22.2 kmh 30.15 in1021.0 mb - 0.00 in0.0 mm 0.00 in0.0 mm
02:10 PM 54.3°F12.4°C 35.5°F1.9°C 49% 6.9 mph S11.1 kmh S 12.7 mph20.4 kmh 30.15 in1021.0 mb - 0.00 in0.0 mm 0.00 in0.0 mm
02:00 PM 54.0°F12.2°C 37.7°F3.2°C 54% 3.5 mph S5.6 kmh S 4.6 mph7.4 kmh 30.15 in1021.0 mb - 0.00 in0.0 mm 0.00 in0.0 mm
01:55 PM 53.6°F12.0°C 37.8°F3.2°C 55% 2.3 mph SSE3.7 kmh SSE 3.5 mph5.6 kmh 30.15 in1021.0 mb - 0.00 in0.0 mm 0.00 in0.0 mm
01:50 PM 53.4°F11.9°C 36.2°F2.3°C 52% 1.2 mph S1.9 kmh S 3.5 mph5.6 kmh 30.15 in1021.0 mb - 0.00 in0.0 mm 0.00 in0.0 mm
01:45 PM 53.2°F11.8°C 36.5°F2.5°C 53% 2.3 mph S3.7 kmh S 2.3 mph3.7 kmh 30.15 in1021.0 mb - 0.00 in0.0 mm 0.00 in0.0 mm
01:40 PM 53.1°F11.7°C 35.9°F2.2°C 52% 3.5 mph SE5.6 kmh SE 4.6 mph7.4 kmh 30.15 in1021.0 mb - 0.00 in0.0 mm 0.00 in0.0 mm
01:35 PM 52.3°F11.3°C 35.7°F2.1°C 53% 2.3 mph SE3.7 kmh SE 3.5 mph5.6 kmh 30.12 in1020.0 mb - 0.00 in0.0 mm 0.00 in0.0 mm
01:30 PM 51.9°F11.1°C 39.7°F4.3°C 63% 2.3 mph SSE3.7 kmh SSE 3.5 mph5.6 kmh 30.12 in1020.0 mb - 0.00 in0.0 mm 0.00 in0.0 mm
01:25 PM 51.6°F10.9°C 39.4°F4.1°C 63% 4.6 mph SSE7.4 kmh SSE 6.9 mph11.1 kmh 30.12 in1020.0 mb - 0.00 in0.0 mm 0.00 in0.0 mm
01:20 PM 51.1°F10.6°C 34.5°F1.4°C 53% 5.8 mph SSE9.3 kmh SSE 6.9 mph11.1 kmh 30.15 in1021.0 mb - 0.00 in0.0 mm 0.00 in0.0 mm
01:15 PM 50.7°F10.4°C 34.2°F1.2°C 53% 5.8 mph SE9.3 kmh SE 6.9 mph11.1 kmh 30.15 in1021.0 mb - 0.00 in0.0 mm 0.00 in0.0 mm
01:10 PM 50.2°F10.1°C 34.2°F1.2°C 54% 4.6 mph S7.4 kmh S 8.1 mph13.0 kmh 30.15 in1021.0 mb - 0.00 in0.0 mm 0.00 in0.0 mm
01:00 PM 49.6°F9.8°C 41.3°F5.2°C 73% 1.2 mph W1.9 kmh W 2.3 mph3.7 kmh 30.15 in1021.0 mb - 0.00 in0.0 mm 0.00 in0.0 mm
12:55 PM 49.3°F9.6°C 40.7°F4.8°C 72% 1.2 mph SSW1.9 kmh SSW 2.3 mph3.7 kmh 30.15 in1021.0 mb - 0.00 in0.0 mm 0.00 in0.0 mm
12:50 PM 49.1°F9.5°C 42.5°F5.8°C 78% 2.3 mph WNW3.7 kmh WNW 2.3 mph3.7 kmh 30.18 in1022.0 mb - 0.00 in0.0 mm 0.00 in0.0 mm
12:45 PM 49.1°F9.5°C 36.6°F2.6°C 62% 3.5 mph S5.6 kmh S 3.5 mph5.6 kmh 30.18 in1022.0 mb - 0.00 in0.0 mm 0.00 in0.0 mm
12:40 PM 48.9°F9.4°C 33.0°F0.6°C 54% 2.3 mph SSE3.7 kmh SSE 2.3 mph3.7 kmh 30.18 in1022.0 mb - 0.00 in0.0 mm 0.00 in0.0 mm
12:35 PM 48.9°F9.4°C 33.0°F0.6°C 54% 3.5 mph S5.6 kmh S 4.6 mph7.4 kmh 30.18 in1022.0 mb - 0.00 in0.0 mm 0.00 in0.0 mm
12:30 PM 48.9°F9.4°C 34.8°F1.6°C 58% 4.6 mph S7.4 kmh S 6.9 mph11.1 kmh 30.18 in1022.0 mb - 0.00 in0.0 mm 0.00 in0.0 mm
12:25 PM 48.9°F9.4°C 37.3°F2.9°C 64% 4.6 mph S7.4 kmh S 5.8 mph9.3 kmh 30.18 in1022.0 mb - 0.00 in0.0 mm 0.00 in0.0 mm
12:20 PM 49.1°F9.5°C 32.7°F0.4°C 53% 4.6 mph SSE7.4 kmh SSE 4.6 mph7.4 kmh 30.18 in1022.0 mb - 0.00 in0.0 mm 0.00 in0.0 mm
12:15 PM 49.1°F9.5°C 32.7°F0.4°C 53% 5.8 mph SSE9.3 kmh SSE 5.8 mph9.3 kmh 30.18 in1022.0 mb - 0.00 in0.0 mm 0.00 in0.0 mm
12:10 PM 49.3°F9.6°C 35.1°F1.7°C 58% 4.6 mph S7.4 kmh S 5.8 mph9.3 kmh 30.18 in1022.0 mb - 0.00 in0.0 mm 0.00 in0.0 mm
12:00 PM 49.5°F9.7°C 33.0°F0.6°C 53% 5.8 mph S9.3 kmh S 8.1 mph13.0 kmh 30.18 in1022.0 mb - 0.00 in0.0 mm 0.00 in0.0 mm
11:55 AM 49.5°F9.7°C 38.6°F3.7°C 66% 5.8 mph S9.3 kmh S 6.9 mph11.1 kmh 30.18 in1022.0 mb - 0.00 in0.0 mm 0.00 in0.0 mm
11:50 AM 49.6°F9.8°C 41.3°F5.2°C 73% 4.6 mph S7.4 kmh S 6.9 mph11.1 kmh 30.18 in1022.0 mb - 0.00 in0.0 mm 0.00 in0.0 mm
11:45 AM 49.6°F9.8°C 38.3°F3.5°C 65% 5.8 mph S9.3 kmh S 5.8 mph9.3 kmh 30.18 in1022.0 mb - 0.00 in0.0 mm 0.00 in0.0 mm
11:40 AM 49.6°F9.8°C 38.3°F3.5°C 65% 5.8 mph S9.3 kmh S 6.9 mph11.1 kmh 30.18 in1022.0 mb - 0.00 in0.0 mm 0.00 in0.0 mm
11:35 AM 49.8°F9.9°C 41.9°F5.5°C 74% 5.8 mph S9.3 kmh S 5.8 mph9.3 kmh 30.21 in1023.0 mb - 0.00 in0.0 mm 0.00 in0.0 mm
11:30 AM 50.0°F10.0°C 41.7°F5.4°C 73% 4.6 mph S7.4 kmh S 5.8 mph9.3 kmh 30.21 in1023.0 mb - 0.00 in0.0 mm 0.00 in0.0 mm
11:25 AM 50.3°F10.2°C 42.7°F5.9°C 75% 4.6 mph S7.4 kmh S 8.1 mph13.0 kmh 30.21 in1023.0 mb - 0.00 in0.0 mm 0.00 in0.0 mm
11:20 AM 50.5°F10.3°C 42.2°F5.7°C 73% 4.6 mph S7.4 kmh S 4.6 mph7.4 kmh 30.18 in1022.0 mb - 0.00 in0.0 mm 0.00 in0.0 mm
11:15 AM 50.5°F10.3°C 41.8°F5.4°C 72% 4.6 mph SSE7.4 kmh SSE 4.6 mph7.4 kmh 30.18 in1022.0 mb - 0.00 in0.0 mm 0.00 in0.0 mm
11:10 AM 50.9°F10.5°C 34.4°F1.3°C 53% 4.6 mph S7.4 kmh S 6.9 mph11.1 kmh 30.18 in1022.0 mb - 0.00 in0.0 mm 0.00 in0.0 mm
11:00 AM 51.4°F10.8°C 35.8°F2.1°C 55% 4.6 mph S7.4 kmh S 4.6 mph7.4 kmh 30.21 in1023.0 mb - 0.00 in0.0 mm 0.00 in0.0 mm
10:55 AM 51.6°F10.9°C 35.0°F1.7°C 53% 3.5 mph S5.6 kmh S 5.8 mph9.3 kmh 30.21 in1023.0 mb - 0.00 in0.0 mm 0.00 in0.0 mm
10:50 AM 51.6°F10.9°C 35.5°F1.9°C 54% 4.6 mph S7.4 kmh S 6.9 mph11.1 kmh 30.18 in1022.0 mb - 0.00 in0.0 mm 0.00 in0.0 mm
10:45 AM 52.3°F11.3°C 36.6°F2.6°C 55% 4.6 mph SSE7.4 kmh SSE 4.6 mph7.4 kmh 30.18 in1022.0 mb - 0.00 in0.0 mm 0.00 in0.0 mm
10:40 AM 52.3°F11.3°C 37.1°F2.8°C 56% 3.5 mph SSW5.6 kmh SSW 3.5 mph5.6 kmh 30.18 in1022.0 mb - 0.00 in0.0 mm 0.00 in0.0 mm
10:35 AM 52.2°F11.2°C 37.8°F3.2°C 58% 5.8 mph S9.3 kmh S 9.2 mph14.8 kmh 30.21 in1023.0 mb - 0.00 in0.0 mm 0.00 in0.0 mm
10:30 AM 51.8°F11.0°C 37.9°F3.3°C 59% 3.5 mph S5.6 kmh S 6.9 mph11.1 kmh 30.21 in1023.0 mb - 0.00 in0.0 mm 0.00 in0.0 mm
10:25 AM 51.4°F10.8°C 38.0°F3.3°C 60% 4.6 mph S7.4 kmh S 5.8 mph9.3 kmh 30.21 in1023.0 mb - 0.00 in0.0 mm 0.00 in0.0 mm
10:20 AM 50.9°F10.5°C 37.5°F3.1°C 60% 3.5 mph S5.6 kmh S 4.6 mph7.4 kmh 30.21 in1023.0 mb - 0.00 in0.0 mm 0.00 in0.0 mm
10:15 AM 50.7°F10.4°C 36.9°F2.7°C 59% 3.5 mph S5.6 kmh S 4.6 mph7.4 kmh 30.21 in1023.0 mb - 0.00 in0.0 mm 0.00 in0.0 mm
10:10 AM 50.7°F10.4°C 36.9°F2.7°C 59% 3.5 mph S5.6 kmh S 3.5 mph5.6 kmh 30.21 in1023.0 mb - 0.00 in0.0 mm 0.00 in0.0 mm
10:00 AM 51.4°F10.8°C 38.4°F3.6°C 61% 1.2 mph SSW1.9 kmh SSW 2.3 mph3.7 kmh 30.21 in1023.0 mb - 0.00 in0.0 mm 0.00 in0.0 mm
09:55 AM 51.6°F10.9°C 38.6°F3.7°C 61% 2.3 mph WSW3.7 kmh WSW 3.5 mph5.6 kmh 30.21 in1023.0 mb - 0.00 in0.0 mm 0.00 in0.0 mm
09:50 AM 51.4°F10.8°C 38.4°F3.6°C 61% 4.6 mph SSE7.4 kmh SSE 5.8 mph9.3 kmh 30.21 in1023.0 mb - 0.00 in0.0 mm 0.00 in0.0 mm
09:45 AM 51.6°F10.9°C 39.0°F3.9°C 62% 3.5 mph SSE5.6 kmh SSE 3.5 mph5.6 kmh 30.21 in1023.0 mb - 0.00 in0.0 mm 0.00 in0.0 mm
09:40 AM 51.8°F11.0°C 39.2°F4.0°C 62% 2.3 mph S3.7 kmh S 3.5 mph5.6 kmh 30.21 in1023.0 mb - 0.00 in0.0 mm 0.00 in0.0 mm
09:35 AM 51.6°F10.9°C 39.4°F4.1°C 63% 3.5 mph SE5.6 kmh SE 5.8 mph9.3 kmh 30.21 in1023.0 mb - 0.00 in0.0 mm 0.00 in0.0 mm
09:30 AM 51.2°F10.7°C 39.5°F4.2°C 64% 3.5 mph SE5.6 kmh SE 4.6 mph7.4 kmh 30.21 in1023.0 mb - 0.00 in0.0 mm 0.00 in0.0 mm
09:25 AM 50.5°F10.3°C 39.2°F4.0°C 65% 2.3 mph SE3.7 kmh SE 3.5 mph5.6 kmh 30.21 in1023.0 mb - 0.00 in0.0 mm 0.00 in0.0 mm
09:20 AM 49.9°F9.9°C 39.0°F3.9°C 66% 1.2 mph SSE1.9 kmh SSE 2.3 mph3.7 kmh 30.21 in1023.0 mb - 0.00 in0.0 mm 0.00 in0.0 mm
09:15 AM 49.3°F9.6°C 38.8°F3.8°C 67% Calm Calm 1.2 mph1.9 kmh 30.21 in1023.0 mb - 0.00 in0.0 mm 0.00 in0.0 mm
09:10 AM 49.1°F9.5°C 39.0°F3.9°C 68% 1.2 mph SE1.9 kmh SE 2.3 mph3.7 kmh 30.21 in1023.0 mb - 0.00 in0.0 mm 0.00 in0.0 mm
09:00 AM 46.7°F8.2°C 36.7°F2.6°C 68% 2.3 mph NNE3.7 kmh NNE 2.3 mph3.7 kmh 30.21 in1023.0 mb - 0.00 in0.0 mm 0.00 in0.0 mm
08:55 AM 45.6°F7.6°C 35.7°F2.1°C 68% 2.3 mph NE3.7 kmh NE 2.3 mph3.7 kmh 30.21 in1023.0 mb - 0.00 in0.0 mm 0.00 in0.0 mm
08:50 AM 43.7°F6.5°C 33.4°F0.8°C 67% 2.3 mph N3.7 kmh N 2.3 mph3.7 kmh 30.21 in1023.0 mb - 0.00 in0.0 mm 0.00 in0.0 mm
08:45 AM 42.5°F5.8°C 32.3°F0.2°C 67% Calm Calm 2.3 mph3.7 kmh 30.21 in1023.0 mb - 0.00 in0.0 mm 0.00 in0.0 mm
08:40 AM 41.4°F5.2°C 31.2°F-0.4°C 67% 2.3 mph NE3.7 kmh NE 2.3 mph3.7 kmh 30.21 in1023.0 mb - 0.00 in0.0 mm 0.00 in0.0 mm
08:35 AM 40.3°F4.6°C 29.8°F-1.2°C 66% 1.2 mph ESE1.9 kmh ESE 1.2 mph1.9 kmh 30.21 in1023.0 mb - 0.00 in0.0 mm 0.00 in0.0 mm
08:30 AM 39.7°F4.3°C 29.3°F-1.5°C 66% 1.2 mph ESE1.9 kmh ESE 1.2 mph1.9 kmh 30.21 in1023.0 mb - 0.00 in0.0 mm 0.00 in0.0 mm
08:25 AM 39.2°F4.0°C 28.8°F-1.8°C 66% Calm Calm -- 30.21 in1023.0 mb - 0.00 in0.0 mm 0.00 in0.0 mm
08:20 AM 38.8°F3.8°C 28.4°F-2.0°C 66% Calm Calm -- 30.21 in1023.0 mb - 0.00 in0.0 mm 0.00 in0.0 mm
08:15 AM 38.5°F3.6°C 28.1°F-2.2°C 66% 1.2 mph ESE1.9 kmh ESE 2.3 mph3.7 kmh 30.21 in1023.0 mb - 0.00 in0.0 mm 0.00 in0.0 mm
08:10 AM 38.4°F3.6°C 28.0°F-2.2°C 66% 2.3 mph SE3.7 kmh SE 2.3 mph3.7 kmh 30.21 in1023.0 mb - 0.00 in0.0 mm 0.00 in0.0 mm
08:00 AM 38.3°F3.5°C 27.9°F-2.3°C 66% 2.3 mph NNW3.7 kmh NNW 2.3 mph3.7 kmh 30.18 in1022.0 mb - 0.00 in0.0 mm 0.00 in0.0 mm
07:55 AM 38.1°F3.4°C 27.8°F-2.3°C 66% 3.5 mph NNW5.6 kmh NNW 2.3 mph3.7 kmh 30.18 in1022.0 mb - 0.00 in0.0 mm 0.00 in0.0 mm
07:50 AM 37.9°F3.3°C 27.6°F-2.4°C 66% 2.3 mph NNW3.7 kmh NNW 2.3 mph3.7 kmh 30.21 in1023.0 mb - 0.00 in0.0 mm 0.00 in0.0 mm
07:45 AM 37.8°F3.2°C 27.4°F-2.6°C 66% 3.5 mph NW5.6 kmh NW 3.5 mph5.6 kmh 30.21 in1023.0 mb - 0.00 in0.0 mm 0.00 in0.0 mm
07:40 AM 37.8°F3.2°C 27.4°F-2.6°C 66% 3.5 mph NW5.6 kmh NW 3.5 mph5.6 kmh 30.21 in1023.0 mb - 0.00 in0.0 mm 0.00 in0.0 mm
07:35 AM 37.6°F3.1°C 26.9°F-2.8°C 65% 3.5 mph NW5.6 kmh NW 3.5 mph5.6 kmh 30.21 in1023.0 mb - 0.00 in0.0 mm 0.00 in0.0 mm
07:30 AM 37.6°F3.1°C 26.9°F-2.8°C 65% 3.5 mph NNW5.6 kmh NNW 4.6 mph7.4 kmh 30.21 in1023.0 mb - 0.00 in0.0 mm 0.00 in0.0 mm
07:25 AM 37.6°F3.1°C 26.9°F-2.8°C 65% 2.3 mph NNW3.7 kmh NNW 3.5 mph5.6 kmh 30.21 in1023.0 mb - 0.00 in0.0 mm 0.00 in0.0 mm
07:20 AM 37.6°F3.1°C 26.9°F-2.8°C 65% 3.5 mph NW5.6 kmh NW 3.5 mph5.6 kmh 30.21 in1023.0 mb - 0.00 in0.0 mm 0.00 in0.0 mm
07:15 AM 37.4°F3.0°C 26.7°F-2.9°C 65% 2.3 mph NNW3.7 kmh NNW 3.5 mph5.6 kmh 30.21 in1023.0 mb - 0.00 in0.0 mm 0.00 in0.0 mm
07:10 AM 37.4°F3.0°C 26.7°F-2.9°C 65% 3.5 mph NW5.6 kmh NW 3.5 mph5.6 kmh 30.21 in1023.0 mb - 0.00 in0.0 mm 0.00 in0.0 mm
07:00 AM 37.8°F3.2°C 27.0°F-2.8°C 65% 1.2 mph N1.9 kmh N 1.2 mph1.9 kmh 30.21 in1023.0 mb - 0.00 in0.0 mm 0.00 in0.0 mm
06:55 AM 38.1°F3.4°C 27.4°F-2.6°C 65% 1.2 mph NNW1.9 kmh NNW 2.3 mph3.7 kmh 30.21 in1023.0 mb - 0.00 in0.0 mm 0.00 in0.0 mm
06:50 AM 38.5°F3.6°C 28.1°F-2.2°C 66% 2.3 mph WNW3.7 kmh WNW 2.3 mph3.7 kmh 30.21 in1023.0 mb - 0.00 in0.0 mm 0.00 in0.0 mm
06:45 AM 38.8°F3.8°C 28.4°F-2.0°C 66% 2.3 mph W3.7 kmh W 2.3 mph3.7 kmh 30.21 in1023.0 mb - 0.00 in0.0 mm 0.00 in0.0 mm
06:40 AM 38.8°F3.8°C 28.4°F-2.0°C 66% 2.3 mph WNW3.7 kmh WNW 2.3 mph3.7 kmh 30.21 in1023.0 mb - 0.00 in0.0 mm 0.00 in0.0 mm
06:35 AM 38.8°F3.8°C 28.4°F-2.0°C 66% 2.3 mph NNW3.7 kmh NNW 3.5 mph5.6 kmh 30.21 in1023.0 mb - 0.00 in0.0 mm 0.00 in0.0 mm
06:30 AM 38.9°F3.8°C 28.5°F-1.9°C 66% 2.3 mph NW3.7 kmh NW 3.5 mph5.6 kmh 30.21 in1023.0 mb - 0.00 in0.0 mm 0.00 in0.0 mm
06:25 AM 38.7°F3.7°C 28.3°F-2.1°C 66% 2.3 mph NNW3.7 kmh NNW 3.5 mph5.6 kmh 30.21 in1023.0 mb - 0.00 in0.0 mm 0.00 in0.0 mm
06:20 AM 38.5°F3.6°C 28.1°F-2.2°C 66% 3.5 mph NE5.6 kmh NE 3.5 mph5.6 kmh 30.21 in1023.0 mb - 0.00 in0.0 mm 0.00 in0.0 mm
06:15 AM 38.7°F3.7°C 28.3°F-2.1°C 66% 3.5 mph N5.6 kmh N 3.5 mph5.6 kmh 30.21 in1023.0 mb - 0.00 in0.0 mm 0.00 in0.0 mm
06:10 AM 38.5°F3.6°C 27.7°F-2.4°C 65% 2.3 mph N3.7 kmh N 2.3 mph3.7 kmh 30.21 in1023.0 mb - 0.00 in0.0 mm 0.00 in0.0 mm
06:00 AM 38.3°F3.5°C 27.6°F-2.4°C 65% 2.3 mph NE3.7 kmh NE 2.3 mph3.7 kmh 30.21 in1023.0 mb - 0.00 in0.0 mm 0.00 in0.0 mm
05:55 AM 38.3°F3.5°C 27.6°F-2.4°C 65% Calm Calm 1.2 mph1.9 kmh 30.21 in1023.0 mb - 0.00 in0.0 mm 0.00 in0.0 mm
05:50 AM 38.7°F3.7°C 27.9°F-2.3°C 65% 1.2 mph E1.9 kmh E 2.3 mph3.7 kmh 30.21 in1023.0 mb - 0.00 in0.0 mm 0.00 in0.0 mm
05:45 AM 39.0°F3.9°C 28.2°F-2.1°C 65% Calm Calm -- 30.21 in1023.0 mb - 0.00 in0.0 mm 0.00 in0.0 mm
05:40 AM 39.2°F4.0°C 28.4°F-2.0°C 65% Calm Calm -- 30.21 in1023.0 mb - 0.00 in0.0 mm 0.00 in0.0 mm
05:35 AM 39.0°F3.9°C 28.2°F-2.1°C 65% Calm Calm -- 30.21 in1023.0 mb - 0.00 in0.0 mm 0.00 in0.0 mm
05:30 AM 39.2°F4.0°C 28.4°F-2.0°C 65% 1.2 mph SE1.9 kmh SE 2.3 mph3.7 kmh 30.21 in1023.0 mb - 0.00 in0.0 mm 0.00 in0.0 mm
05:25 AM 39.6°F4.2°C 28.8°F-1.8°C 65% 1.2 mph 1.9 kmh 2.3 mph3.7 kmh 30.21 in1023.0 mb - 0.00 in0.0 mm 0.00 in0.0 mm
05:20 AM 39.6°F4.2°C 28.8°F-1.8°C 65% 3.5 mph 5.6 kmh 3.5 mph5.6 kmh 30.21 in1023.0 mb - 0.00 in0.0 mm 0.00 in0.0 mm
05:15 AM 39.6°F4.2°C 28.8°F-1.8°C 65% 2.3 mph NNE3.7 kmh NNE 3.5 mph5.6 kmh 30.21 in1023.0 mb - 0.00 in0.0 mm 0.00 in0.0 mm
05:10 AM 39.7°F4.3°C 28.9°F-1.7°C 65% 2.3 mph NE3.7 kmh NE 3.5 mph5.6 kmh 30.21 in1023.0 mb - 0.00 in0.0 mm 0.00 in0.0 mm
05:00 AM 40.1°F4.5°C 29.3°F-1.5°C 65% 2.3 mph NW3.7 kmh NW 2.3 mph3.7 kmh 30.18 in1022.0 mb - 0.00 in0.0 mm 0.00 in0.0 mm
04:55 AM 40.3°F4.6°C 29.4°F-1.4°C 65% 2.3 mph N3.7 kmh N 2.3 mph3.7 kmh 30.18 in1022.0 mb - 0.00 in0.0 mm 0.00 in0.0 mm
04:50 AM 40.5°F4.7°C 29.6°F-1.3°C 65% 2.3 mph NNE3.7 kmh NNE 3.5 mph5.6 kmh 30.21 in1023.0 mb - 0.00 in0.0 mm 0.00 in0.0 mm
04:45 AM 40.5°F4.7°C 29.6°F-1.3°C 65% 3.5 mph N5.6 kmh N 4.6 mph7.4 kmh 30.21 in1023.0 mb - 0.00 in0.0 mm 0.00 in0.0 mm
04:40 AM 40.5°F4.7°C 29.6°F-1.3°C 65% 3.5 mph NNE5.6 kmh NNE 4.6 mph7.4 kmh 30.21 in1023.0 mb - 0.00 in0.0 mm 0.00 in0.0 mm
04:35 AM 40.5°F4.7°C 29.6°F-1.3°C 65% 3.5 mph NNE5.6 kmh NNE 3.5 mph5.6 kmh 30.21 in1023.0 mb - 0.00 in0.0 mm 0.00 in0.0 mm
04:30 AM 40.5°F4.7°C 29.6°F-1.3°C 65% 3.5 mph N5.6 kmh N 4.6 mph7.4 kmh 30.21 in1023.0 mb - 0.00 in0.0 mm 0.00 in0.0 mm
04:25 AM 40.5°F4.7°C 29.6°F-1.3°C 65% 2.3 mph N3.7 kmh N 3.5 mph5.6 kmh 30.21 in1023.0 mb - 0.00 in0.0 mm 0.00 in0.0 mm
04:20 AM 40.6°F4.8°C 29.8°F-1.2°C 65% 2.3 mph NE3.7 kmh NE 2.3 mph3.7 kmh 30.21 in1023.0 mb - 0.00 in0.0 mm 0.00 in0.0 mm
04:15 AM 40.8°F4.9°C 30.0°F-1.1°C 65% 3.5 mph NNE5.6 kmh NNE 3.5 mph5.6 kmh 30.21 in1023.0 mb - 0.00 in0.0 mm 0.00 in0.0 mm
04:10 AM 40.8°F4.9°C 30.0°F-1.1°C 65% 3.5 mph NE5.6 kmh NE 4.6 mph7.4 kmh 30.21 in1023.0 mb - 0.00 in0.0 mm 0.00 in0.0 mm
04:00 AM 40.8°F4.9°C 30.0°F-1.1°C 65% 2.3 mph N3.7 kmh N 3.5 mph5.6 kmh 30.21 in1023.0 mb - 0.00 in0.0 mm 0.00 in0.0 mm
03:55 AM 40.8°F4.9°C 30.0°F-1.1°C 65% 2.3 mph NNE3.7 kmh NNE 3.5 mph5.6 kmh 30.21 in1023.0 mb - 0.00 in0.0 mm 0.00 in0.0 mm
03:50 AM 41.0°F5.0°C 30.1°F-1.1°C 65% 2.3 mph NNE3.7 kmh NNE 3.5 mph5.6 kmh 30.21 in1023.0 mb - 0.00 in0.0 mm 0.00 in0.0 mm
03:45 AM 41.2°F5.1°C 30.3°F-0.9°C 65% 2.3 mph NNE3.7 kmh NNE 3.5 mph5.6 kmh 30.21 in1023.0 mb - 0.00 in0.0 mm 0.00 in0.0 mm
03:40 AM 41.5°F5.3°C 30.6°F-0.8°C 65% 2.3 mph NNW3.7 kmh NNW 3.5 mph5.6 kmh 30.21 in1023.0 mb - 0.00 in0.0 mm 0.00 in0.0 mm
03:35 AM 41.5°F5.3°C 30.6°F-0.8°C 65% 1.2 mph NNW1.9 kmh NNW 2.3 mph3.7 kmh 30.21 in1023.0 mb - 0.00 in0.0 mm 0.00 in0.0 mm
03:30 AM 41.5°F5.3°C 30.6°F-0.8°C 65% 1.2 mph NE1.9 kmh NE 2.3 mph3.7 kmh 30.21 in1023.0 mb - 0.00 in0.0 mm 0.00 in0.0 mm
03:25 AM 41.7°F5.4°C 30.8°F-0.7°C 65% 2.3 mph NNE3.7 kmh NNE 2.3 mph3.7 kmh 30.21 in1023.0 mb - 0.00 in0.0 mm 0.00 in0.0 mm
03:20 AM 41.5°F5.3°C 30.6°F-0.8°C 65% 2.3 mph N3.7 kmh N 3.5 mph5.6 kmh 30.18 in1022.0 mb - 0.00 in0.0 mm 0.00 in0.0 mm
03:15 AM 41.4°F5.2°C 30.5°F-0.8°C 65% 3.5 mph NNW5.6 kmh NNW 4.6 mph7.4 kmh 30.18 in1022.0 mb - 0.00 in0.0 mm 0.00 in0.0 mm
03:10 AM 41.2°F5.1°C 30.3°F-0.9°C 65% 2.3 mph NNW3.7 kmh NNW 3.5 mph5.6 kmh 30.18 in1022.0 mb - 0.00 in0.0 mm 0.00 in0.0 mm
03:00 AM 41.2°F5.1°C 29.9°F-1.2°C 64% 2.3 mph N3.7 kmh N 3.5 mph5.6 kmh 30.21 in1023.0 mb - 0.00 in0.0 mm 0.00 in0.0 mm
02:55 AM 41.0°F5.0°C 29.7°F-1.3°C 64% 2.3 mph NE3.7 kmh NE 3.5 mph5.6 kmh 30.21 in1023.0 mb - 0.00 in0.0 mm 0.00 in0.0 mm
02:50 AM 41.0°F5.0°C 29.7°F-1.3°C 64% 3.5 mph NNE5.6 kmh NNE 3.5 mph5.6 kmh 30.21 in1023.0 mb - 0.00 in0.0 mm 0.00 in0.0 mm
02:45 AM 41.0°F5.0°C 29.7°F-1.3°C 64% 3.5 mph NE5.6 kmh NE 3.5 mph5.6 kmh 30.21 in1023.0 mb - 0.00 in0.0 mm 0.00 in0.0 mm
02:40 AM 41.0°F5.0°C 29.8°F-1.2°C 64% 2.3 mph NE3.7 kmh NE 3.5 mph5.6 kmh 30.21 in1023.0 mb - 0.00 in0.0 mm 0.00 in0.0 mm
02:35 AM 41.3°F5.2°C 30.1°F-1.1°C 64% 2.3 mph NNE3.7 kmh NNE 3.5 mph5.6 kmh 30.21 in1023.0 mb - 0.00 in0.0 mm 0.00 in0.0 mm
02:30 AM 41.2°F5.1°C 29.9°F-1.2°C 64% 2.3 mph N3.7 kmh N 2.3 mph3.7 kmh 30.21 in1023.0 mb - 0.00 in0.0 mm 0.00 in0.0 mm
02:25 AM 41.2°F5.1°C 29.9°F-1.2°C 64% 2.3 mph NE3.7 kmh NE 2.3 mph3.7 kmh 30.21 in1023.0 mb - 0.00 in0.0 mm 0.00 in0.0 mm
02:20 AM 41.5°F5.3°C 30.3°F-0.9°C 64% 3.5 mph NE5.6 kmh NE 3.5 mph5.6 kmh 30.24 in1024.0 mb - 0.00 in0.0 mm 0.00 in0.0 mm
02:15 AM 41.8°F5.4°C 30.5°F-0.8°C 64% 2.3 mph NNE3.7 kmh NNE 3.5 mph5.6 kmh 30.24 in1024.0 mb - 0.00 in0.0 mm 0.00 in0.0 mm
02:10 AM 41.9°F5.5°C 30.6°F-0.8°C 64% 3.5 mph 5.6 kmh 3.5 mph5.6 kmh 30.24 in1024.0 mb - 0.00 in0.0 mm 0.00 in0.0 mm
02:00 AM 42.1°F5.6°C 30.8°F-0.7°C 64% 2.3 mph NNE3.7 kmh NNE 2.3 mph3.7 kmh 30.24 in1024.0 mb - 0.00 in0.0 mm 0.00 in0.0 mm
01:55 AM 42.2°F5.7°C 30.9°F-0.6°C 64% 2.3 mph E3.7 kmh E 2.3 mph3.7 kmh 30.24 in1024.0 mb - 0.00 in0.0 mm 0.00 in0.0 mm
01:50 AM 42.4°F5.8°C 31.1°F-0.5°C 64% 2.3 mph E3.7 kmh E 3.5 mph5.6 kmh 30.24 in1024.0 mb - 0.00 in0.0 mm 0.00 in0.0 mm
01:45 AM 42.9°F6.1°C 31.5°F-0.3°C 64% 2.3 mph NNE3.7 kmh NNE 2.3 mph3.7 kmh 30.24 in1024.0 mb - 0.00 in0.0 mm 0.00 in0.0 mm
01:40 AM 43.1°F6.2°C 31.8°F-0.1°C 64% 1.2 mph ESE1.9 kmh ESE 1.2 mph1.9 kmh 30.24 in1024.0 mb - 0.00 in0.0 mm 0.00 in0.0 mm
01:35 AM 43.3°F6.3°C 32.0°F0.0°C 64% Calm Calm -- 30.24 in1024.0 mb - 0.00 in0.0 mm 0.00 in0.0 mm
01:30 AM 43.7°F6.5°C 32.3°F0.2°C 64% Calm Calm -- 30.24 in1024.0 mb - 0.00 in0.0 mm 0.00 in0.0 mm
01:25 AM 44.2°F6.8°C 32.8°F0.4°C 64% Calm Calm -- 30.24 in1024.0 mb - 0.00 in0.0 mm 0.00 in0.0 mm
01:20 AM 44.7°F7.1°C 33.3°F0.7°C 64% Calm Calm -- 30.24 in1024.0 mb - 0.00 in0.0 mm 0.00 in0.0 mm
01:15 AM 45.5°F7.5°C 34.4°F1.3°C 65% Calm Calm -- 30.24 in1024.0 mb - 0.00 in0.0 mm 0.00 in0.0 mm
01:10 AM 46.0°F7.8°C 34.9°F1.6°C 65% 1.2 mph S1.9 kmh S 1.2 mph1.9 kmh 30.24 in1024.0 mb - 0.00 in0.0 mm 0.00 in0.0 mm
01:00 AM 46.9°F8.3°C 36.2°F2.3°C 66% 3.5 mph S5.6 kmh S 3.5 mph5.6 kmh 30.24 in1024.0 mb - 0.00 in0.0 mm 0.00 in0.0 mm
12:55 AM 46.6°F8.1°C 35.8°F2.1°C 66% 4.6 mph SW7.4 kmh SW 6.9 mph11.1 kmh 30.24 in1024.0 mb - 0.00 in0.0 mm 0.00 in0.0 mm
12:50 AM 46.0°F7.8°C 35.3°F1.8°C 66% 4.6 mph W7.4 kmh W 5.8 mph9.3 kmh 30.24 in1024.0 mb - 0.00 in0.0 mm 0.00 in0.0 mm
12:45 AM 45.9°F7.7°C 35.1°F1.7°C 66% 2.3 mph WSW3.7 kmh WSW 3.5 mph5.6 kmh 30.24 in1024.0 mb - 0.00 in0.0 mm 0.00 in0.0 mm
12:40 AM 46.2°F7.9°C 35.9°F2.2°C 67% 2.3 mph WSW3.7 kmh WSW 2.3 mph3.7 kmh 30.24 in1024.0 mb - 0.00 in0.0 mm 0.00 in0.0 mm
12:35 AM 46.2°F7.9°C 35.9°F2.2°C 67% 4.6 mph W7.4 kmh W 5.8 mph9.3 kmh 30.27 in1025.1 mb - 0.00 in0.0 mm 0.00 in0.0 mm
12:30 AM 45.9°F7.7°C 35.5°F1.9°C 67% 3.5 mph SW5.6 kmh SW 4.6 mph7.4 kmh 30.27 in1025.1 mb - 0.00 in0.0 mm 0.00 in0.0 mm
12:25 AM 45.2°F7.3°C 34.5°F1.4°C 66% 4.6 mph WSW7.4 kmh WSW 5.8 mph9.3 kmh 30.27 in1025.1 mb - 0.00 in0.0 mm 0.00 in0.0 mm
12:20 AM 44.4°F6.9°C 33.8°F1.0°C 66% 3.5 mph W5.6 kmh W 4.6 mph7.4 kmh 30.24 in1024.0 mb - 0.00 in0.0 mm 0.00 in0.0 mm
12:15 AM 44.2°F6.8°C 33.6°F0.9°C 66% 2.3 mph WSW3.7 kmh WSW 3.5 mph5.6 kmh 30.24 in1024.0 mb - 0.00 in0.0 mm 0.00 in0.0 mm
12:10 AM 44.2°F6.8°C 33.6°F0.9°C 66% 3.5 mph NW5.6 kmh NW 3.5 mph5.6 kmh 30.24 in1024.0 mb - 0.00 in0.0 mm 0.00 in0.0 mm
12:00 AM 44.1°F6.7°C 33.4°F0.8°C 66% 4.6 mph N7.4 kmh N 6.9 mph11.1 kmh 30.24 in1024.0 mb - 0.00 in0.0 mm 0.00 in0.0 mm